This is the latest recevied weather packets stored in our database for station/object KR8N. If no packets are shown the sender has not sent any weather packets the latest 10 day(s).
| Time | Temp. | Humidity | Pressure | Rain* | Wind** | Luminosity | Snow |
|---|---|---|---|---|---|---|---|
| 1777929028 | 21.11° C | 47% | 1014.5 hPa | 0 mm | - | 457 W/m² | - |
| 1777928725 | 21.67° C | 42% | 1014.7 hPa | 0 mm | - | 474 W/m² | - |
| 1777928422 | 21.67° C | 42% | 1014.7 hPa | 0 mm | - | 498 W/m² | - |
| 1777928120 | 20.56° C | 46% | 1015 hPa | 0 mm | - | 531 W/m² | - |
| 1777927818 | 20.56° C | 44% | 1015.1 hPa | 0 mm | - | 491 W/m² | - |
| 1777927515 | 20.56° C | 49% | 1014.9 hPa | 0 mm | - | 556 W/m² | - |
| 1777927214 | 20° C | 46% | 1015 hPa | 0 mm | - | 567 W/m² | - |
| 1777926912 | 20.56° C | 47% | 1015.3 hPa | 0 mm | - | 581 W/m² | - |
| 1777926610 | 20° C | 52% | 1015.3 hPa | 0 mm | - | 591 W/m² | - |
| 1777926304 | 19.44° C | 51% | 1015.5 hPa | 0 mm | - | 621 W/m² | - |
| 1777926001 | 18.89° C | 56% | 1015.5 hPa | 0 mm | - | 638 W/m² | - |
| 1777925698 | 18.89° C | 59% | 1015.6 hPa | 0 mm | - | 659 W/m² | - |
| 1777925396 | 17.78° C | 61% | 1015.7 hPa | 0 mm | - | 486 W/m² | - |
| 1777925092 | 16.67° C | 68% | 1015.7 hPa | 0 mm | - | 716 W/m² | - |
| 1777924789 | 15.56° C | 69% | 1015.8 hPa | 0 mm | - | 537 W/m² | - |
| 1777924485 | 15.56° C | 66% | 1015.9 hPa | 3.05 mm | - | 196 W/m² | - |
| 1777924182 | 15.56° C | 67% | 1015.6 hPa | 4.83 mm | - | 75 W/m² | - |
| 1777923878 | 17.78° C | 58% | 1016.4 hPa | 1.78 mm | - | 26 W/m² | - |
| 1777923574 | 18.89° C | 48% | 1015.9 hPa | 0 mm | - | 25 W/m² | - |
| 1777923271 | 18.89° C | 48% | 1015.6 hPa | 0 mm | - | 60 W/m² | - |
| 1777922971 | 19.44° C | 48% | 1015.5 hPa | 0 mm | - | 61 W/m² | - |
| 1777922667 | 20° C | 49% | 1015.6 hPa | 0 mm | - | 74 W/m² | - |
| 1777922366 | 20.56° C | 43% | 1015.3 hPa | 0 mm | - | 100 W/m² | - |
| 1777922064 | 20.56° C | 46% | 1015.3 hPa | 0 mm | - | 161 W/m² | - |
| 1777921759 | 20.56° C | 45% | 1015.4 hPa | 0 mm | - | 236 W/m² | - |
* Rain latest hour (hover to see other rain measurements)
** Current wind speed in m/s (hover to see current wind gust speed)